createdAt,value
2017-07-04T00:00:30.480Z,0.00
2017-07-04T00:01:24.410Z,0.00
2017-07-04T00:02:12.346Z,0.00
2017-07-04T00:03:13.437Z,0.00
2017-07-04T00:04:07.537Z,0.00
2017-07-04T00:05:07.523Z,0.00
2017-07-04T00:06:02.529Z,0.00
2017-07-04T00:06:50.646Z,0.00
2017-07-04T00:07:38.621Z,0.00
2017-07-04T00:08:26.670Z,0.00
2017-07-04T00:09:15.672Z,0.00
2017-07-04T00:10:03.848Z,0.00
2017-07-04T00:10:52.536Z,0.00
2017-07-04T00:11:39.878Z,0.00
2017-07-04T00:12:28.944Z,0.00
2017-07-04T00:13:16.999Z,0.00
2017-07-04T00:14:05.980Z,0.00
2017-07-04T00:14:53.984Z,0.00
2017-07-04T00:15:42.105Z,0.00
2017-07-04T00:16:31.286Z,0.00
2017-07-04T00:17:19.147Z,0.00
2017-07-04T00:18:07.184Z,0.00
2017-07-04T00:18:56.420Z,0.00
2017-07-04T00:19:44.414Z,0.00
2017-07-04T00:20:33.337Z,0.00
2017-07-04T00:21:21.443Z,0.00
2017-07-04T00:22:09.520Z,0.00
2017-07-04T00:22:57.481Z,0.00
2017-07-04T00:23:45.734Z,0.00
2017-07-04T00:24:51.532Z,0.00
2017-07-04T00:25:46.540Z,0.00
2017-07-04T00:26:46.646Z,0.00
2017-07-04T00:27:40.720Z,0.00
2017-07-04T00:28:40.743Z,0.00
2017-07-04T00:29:35.766Z,0.00
2017-07-04T00:30:30.781Z,0.00
2017-07-04T00:31:24.752Z,0.00
2017-07-04T00:32:13.958Z,0.00
2017-07-04T00:33:02.890Z,0.00
2017-07-04T00:33:51.826Z,0.00
2017-07-04T00:34:52.013Z,0.00
2017-07-04T00:35:45.957Z,0.00
2017-07-04T00:36:46.088Z,0.00
2017-07-04T00:37:41.159Z,0.00
2017-07-04T00:38:36.263Z,0.00
2017-07-04T00:39:37.205Z,0.00
2017-07-04T00:40:37.209Z,0.00
2017-07-04T00:41:37.324Z,0.00
2017-07-04T00:42:32.276Z,0.00
2017-07-04T00:43:26.289Z,0.00
2017-07-04T00:44:26.281Z,0.00
2017-07-04T00:45:21.362Z,0.00
2017-07-04T00:46:22.072Z,0.00
2017-07-04T00:47:15.486Z,0.00
2017-07-04T00:48:15.538Z,0.00
2017-07-04T00:49:10.571Z,0.00
2017-07-04T00:50:05.571Z,0.00
2017-07-04T00:51:06.577Z,0.00
2017-07-04T00:52:06.769Z,0.00
2017-07-04T00:53:01.643Z,0.00
2017-07-04T00:54:01.809Z,0.00
2017-07-04T00:54:55.722Z,0.00
2017-07-04T00:55:56.111Z,0.00
2017-07-04T00:56:50.869Z,0.00
2017-07-04T00:57:46.144Z,0.00
2017-07-04T00:58:45.928Z,0.00
2017-07-04T00:59:41.153Z,0.00
2017-07-04T01:00:36.174Z,0.00
2017-07-04T01:01:36.007Z,0.00
2017-07-04T01:02:31.018Z,0.00
2017-07-04T01:03:25.076Z,0.00
2017-07-04T01:04:25.264Z,0.00
2017-07-04T01:05:25.235Z,0.00
2017-07-04T01:06:20.846Z,0.00
2017-07-04T01:07:15.259Z,0.00
2017-07-04T01:08:04.288Z,0.00
2017-07-04T01:09:04.467Z,0.00
2017-07-04T01:09:52.354Z,0.00
2017-07-04T01:10:41.520Z,0.00
2017-07-04T01:11:29.398Z,0.00
2017-07-04T01:12:17.451Z,0.00
2017-07-04T01:13:06.584Z,0.00
2017-07-04T01:13:54.685Z,0.00
2017-07-04T01:14:42.833Z,0.00
2017-07-04T01:15:32.145Z,0.00
2017-07-04T01:16:19.697Z,0.00
2017-07-04T01:17:13.813Z,0.00
2017-07-04T01:18:13.892Z,0.00
2017-07-04T01:19:13.889Z,0.00
2017-07-04T01:20:14.406Z,0.00
2017-07-04T01:21:19.864Z,0.00
2017-07-04T01:22:08.883Z,0.00
2017-07-04T01:22:57.002Z,0.00
2017-07-04T01:23:46.004Z,0.00
2017-07-04T01:24:34.087Z,0.00
2017-07-04T01:25:28.057Z,0.00
2017-07-04T01:26:28.051Z,0.00
2017-07-04T01:27:28.206Z,0.00
2017-07-04T01:28:23.188Z,0.00
2017-07-04T01:29:17.290Z,0.00
2017-07-04T01:30:18.592Z,0.00
2017-07-04T01:31:19.374Z,0.00
2017-07-04T01:32:19.364Z,0.00
2017-07-04T01:33:19.402Z,0.00
2017-07-04T01:34:14.422Z,0.00
2017-07-04T01:35:08.456Z,0.00
2017-07-04T01:36:08.528Z,0.00
2017-07-04T01:37:03.594Z,0.00
2017-07-04T01:38:03.603Z,0.00
2017-07-04T01:38:57.619Z,0.00
2017-07-04T01:39:58.678Z,0.00
2017-07-04T01:41:00.113Z,0.00
2017-07-04T01:41:54.737Z,0.00
2017-07-04T01:42:48.865Z,0.00
2017-07-04T01:43:48.835Z,0.00
2017-07-04T01:44:43.822Z,0.00
2017-07-04T01:45:43.873Z,0.00
2017-07-04T01:46:37.919Z,0.00
2017-07-04T01:47:38.069Z,0.00
2017-07-04T01:48:33.013Z,0.00
2017-07-04T01:49:28.097Z,0.00
2017-07-04T01:50:28.173Z,0.00
2017-07-04T01:51:23.169Z,0.00
2017-07-04T01:52:23.214Z,0.00
2017-07-04T01:53:23.314Z,0.00
2017-07-04T01:54:23.230Z,0.00
2017-07-04T01:55:17.346Z,0.00
2017-07-04T01:56:17.313Z,0.00
2017-07-04T01:57:12.316Z,0.00
2017-07-04T01:58:07.340Z,0.00
2017-07-04T01:59:07.473Z,0.00
2017-07-04T02:00:02.531Z,0.00
2017-07-04T02:00:58.112Z,0.00
2017-07-04T02:01:58.493Z,0.00
2017-07-04T02:02:58.505Z,0.00
2017-07-04T02:03:58.609Z,0.00
2017-07-04T02:04:53.702Z,0.00
2017-07-04T02:05:47.679Z,0.00
2017-07-04T02:06:48.602Z,0.00
2017-07-04T02:07:48.765Z,0.00
2017-07-04T02:08:48.809Z,0.00
2017-07-04T02:09:43.753Z,0.00
2017-07-04T02:10:37.870Z,0.00
2017-07-04T02:11:37.843Z,0.00
2017-07-04T02:12:32.859Z,0.00
2017-07-04T02:13:28.030Z,0.00
2017-07-04T02:14:33.987Z,0.00
2017-07-04T02:15:34.391Z,0.00
2017-07-04T02:16:34.083Z,0.00
2017-07-04T02:17:28.769Z,0.00
2017-07-04T02:18:28.197Z,0.00
2017-07-04T02:19:28.259Z,0.00
2017-07-04T02:20:28.267Z,0.00
2017-07-04T02:21:28.305Z,0.00
2017-07-04T02:22:23.277Z,0.00
2017-07-04T02:23:17.502Z,0.00
2017-07-04T02:24:17.318Z,0.00
2017-07-04T02:25:12.362Z,0.00
2017-07-04T02:26:12.343Z,0.00
2017-07-04T02:27:12.559Z,0.00
2017-07-04T02:28:18.613Z,0.00
2017-07-04T02:29:18.476Z,0.00
2017-07-04T02:30:19.202Z,0.00
2017-07-04T02:31:18.542Z,0.00
2017-07-04T02:32:12.539Z,0.00
2017-07-04T02:33:12.657Z,0.00
2017-07-04T02:34:07.691Z,0.00
2017-07-04T02:35:07.717Z,0.00
2017-07-04T02:36:07.629Z,0.00
2017-07-04T02:37:07.727Z,0.00
2017-07-04T02:38:01.950Z,0.00
2017-07-04T02:39:01.919Z,0.00
2017-07-04T02:39:57.060Z,0.00
2017-07-04T02:40:51.952Z,0.00
2017-07-04T02:41:51.880Z,0.00
2017-07-04T02:42:46.935Z,0.00
2017-07-04T02:43:41.967Z,0.00
2017-07-04T02:44:43.047Z,0.00
2017-07-04T02:45:44.080Z,0.00
2017-07-04T02:46:39.255Z,0.00
2017-07-04T02:47:33.195Z,0.00
2017-07-04T02:48:34.199Z,0.00
2017-07-04T02:49:29.162Z,0.00
2017-07-04T02:50:23.319Z,0.00
2017-07-04T02:51:23.347Z,0.00
2017-07-04T02:52:18.349Z,0.00
2017-07-04T02:53:18.337Z,0.00
2017-07-04T02:54:12.550Z,0.00
2017-07-04T02:55:13.050Z,0.00
2017-07-04T02:56:07.492Z,0.00
2017-07-04T02:57:07.651Z,0.00
2017-07-04T02:58:08.585Z,0.00
2017-07-04T02:59:08.569Z,0.00
2017-07-04T03:00:08.788Z,0.00
2017-07-04T03:01:02.685Z,0.00
2017-07-04T03:02:02.751Z,0.00
2017-07-04T03:02:57.835Z,0.00
2017-07-04T03:03:52.798Z,0.00
2017-07-04T03:04:52.908Z,0.00
2017-07-04T03:05:48.480Z,0.00
2017-07-04T03:06:42.927Z,0.00
2017-07-04T03:07:43.861Z,0.00
2017-07-04T03:08:43.902Z,0.00
2017-07-04T03:09:38.944Z,0.00
2017-07-04T03:10:39.072Z,0.00
2017-07-04T03:11:39.043Z,0.00
2017-07-04T03:12:45.190Z,0.00
2017-07-04T03:13:40.158Z,0.00
2017-07-04T03:14:34.197Z,0.00
2017-07-04T03:15:35.186Z,0.00
2017-07-04T03:16:30.288Z,0.00
2017-07-04T03:17:30.344Z,0.00
2017-07-04T03:18:30.308Z,0.00
2017-07-04T03:19:30.425Z,0.00
2017-07-04T03:20:30.484Z,0.00
2017-07-04T03:21:30.505Z,0.00
2017-07-04T03:22:30.507Z,0.00
2017-07-04T03:23:30.498Z,0.00
2017-07-04T03:24:30.505Z,0.01
2017-07-04T03:25:30.635Z,0.01
2017-07-04T03:26:30.525Z,0.01
2017-07-04T03:27:30.701Z,0.01
2017-07-04T03:28:36.793Z,0.01
2017-07-04T03:29:31.801Z,0.01
2017-07-04T03:30:25.781Z,0.01
2017-07-04T03:31:25.825Z,0.01
2017-07-04T03:32:20.838Z,0.01
2017-07-04T03:33:15.886Z,0.01
2017-07-04T03:34:17.524Z,0.01
2017-07-04T03:35:18.554Z,0.01
2017-07-04T03:36:17.959Z,0.01
2017-07-04T03:37:13.064Z,0.01
2017-07-04T03:38:13.095Z,0.01
2017-07-04T03:39:13.121Z,0.01
2017-07-04T03:40:13.780Z,0.01
2017-07-04T03:41:07.215Z,0.01
2017-07-04T03:42:07.194Z,0.01
2017-07-04T03:43:02.300Z,0.01
2017-07-04T03:43:57.213Z,0.01
2017-07-04T03:44:51.263Z,0.01
2017-07-04T03:45:51.500Z,0.02
2017-07-04T03:46:46.276Z,0.02
2017-07-04T03:47:41.441Z,0.02
2017-07-04T03:48:41.503Z,0.02
2017-07-04T03:49:36.627Z,0.02
2017-07-04T03:50:31.564Z,0.01
2017-07-04T03:51:25.613Z,0.01
2017-07-04T03:52:26.707Z,0.01
2017-07-04T03:53:20.690Z,0.01
2017-07-04T03:54:08.802Z,0.01
2017-07-04T03:54:56.779Z,0.01
2017-07-04T03:55:50.939Z,0.01
2017-07-04T03:56:44.823Z,0.01
2017-07-04T03:57:32.828Z,0.01
2017-07-04T03:58:21.986Z,0.01
2017-07-04T03:59:11.044Z,0.01
2017-07-04T04:00:00.065Z,0.01
2017-07-04T04:00:55.277Z,0.01
2017-07-04T04:01:48.983Z,0.01
2017-07-04T04:02:38.203Z,0.01
2017-07-04T04:03:32.160Z,0.01
2017-07-04T04:04:32.160Z,0.01
2017-07-04T04:05:26.426Z,0.01
2017-07-04T04:06:32.319Z,0.02
2017-07-04T04:07:21.358Z,0.03
2017-07-04T04:08:09.381Z,0.03
2017-07-04T04:09:04.443Z,0.04
2017-07-04T04:10:05.588Z,0.04
2017-07-04T04:11:06.539Z,0.05
2017-07-04T04:12:00.588Z,0.05
2017-07-04T04:13:00.600Z,0.05
2017-07-04T04:13:55.556Z,0.05
2017-07-04T04:14:50.751Z,0.05
2017-07-04T04:15:44.633Z,0.05
2017-07-04T04:16:44.890Z,0.05
2017-07-04T04:17:39.748Z,0.05
2017-07-04T04:18:34.877Z,0.06
2017-07-04T04:19:34.967Z,0.06
2017-07-04T04:20:29.947Z,0.07
2017-07-04T04:21:24.923Z,0.07
2017-07-04T04:22:19.336Z,0.07
2017-07-04T04:23:20.054Z,0.08
2017-07-04T04:24:15.187Z,0.08
2017-07-04T04:25:15.603Z,0.08
2017-07-04T04:26:15.849Z,0.08
2017-07-04T04:27:15.116Z,0.08
2017-07-04T04:28:15.300Z,0.08
2017-07-04T04:29:09.353Z,0.08
2017-07-04T04:30:09.309Z,0.09
2017-07-04T04:31:04.413Z,0.09
2017-07-04T04:31:59.395Z,0.09
2017-07-04T04:32:53.406Z,0.09
2017-07-04T04:33:53.478Z,0.09
2017-07-04T04:34:48.517Z,0.09
2017-07-04T04:35:43.428Z,0.09
2017-07-04T04:36:43.663Z,0.09
2017-07-04T04:37:38.703Z,0.10
2017-07-04T04:38:32.649Z,0.10
2017-07-04T04:39:32.777Z,0.11
2017-07-04T04:40:26.710Z,0.11
2017-07-04T04:41:20.828Z,0.12
2017-07-04T04:42:20.969Z,0.12
2017-07-04T04:43:14.899Z,0.11
2017-07-04T04:44:08.886Z,0.11
2017-07-04T04:44:57.966Z,0.10
2017-07-04T04:45:51.926Z,0.10
2017-07-04T04:46:46.269Z,0.10
2017-07-04T04:47:46.121Z,0.09
2017-07-04T04:48:41.086Z,0.10
2017-07-04T04:49:41.233Z,0.10
2017-07-04T04:50:35.203Z,0.10
2017-07-04T04:51:29.278Z,0.11
2017-07-04T04:52:29.323Z,0.11
2017-07-04T04:53:29.403Z,0.12
2017-07-04T04:54:17.371Z,0.12
2017-07-04T04:55:11.325Z,0.12
2017-07-04T04:56:06.745Z,0.12
2017-07-04T04:57:01.499Z,0.12
2017-07-04T04:57:55.490Z,0.12
2017-07-04T04:58:44.722Z,0.11
2017-07-04T04:59:38.629Z,0.10
2017-07-04T05:00:38.752Z,0.09
2017-07-04T05:01:39.036Z,0.09
2017-07-04T05:02:38.786Z,0.08
2017-07-04T05:03:38.819Z,0.06
2017-07-04T05:04:38.796Z,0.06
2017-07-04T05:05:33.965Z,0.05
2017-07-04T05:06:21.941Z,0.05
2017-07-04T05:07:15.963Z,0.05
2017-07-04T05:08:04.963Z,0.05
2017-07-04T05:08:53.082Z,0.05
2017-07-04T05:09:42.054Z,0.05
2017-07-04T05:10:36.180Z,0.05
2017-07-04T05:11:30.226Z,0.04
2017-07-04T05:12:24.427Z,0.04
2017-07-04T05:13:18.555Z,0.04
2017-07-04T05:14:07.363Z,0.05
2017-07-04T05:15:01.274Z,0.05
2017-07-04T05:15:55.385Z,0.05
2017-07-04T05:16:50.454Z,0.06
2017-07-04T05:17:44.376Z,0.06
2017-07-04T05:18:39.550Z,0.07
2017-07-04T05:19:33.633Z,0.07
2017-07-04T05:20:22.564Z,0.08
2017-07-04T05:21:22.661Z,0.09
2017-07-04T05:22:16.728Z,0.10
2017-07-04T05:23:11.884Z,0.10
2017-07-04T05:23:59.841Z,0.10
2017-07-04T05:24:53.980Z,0.11
2017-07-04T05:25:53.932Z,0.11
2017-07-04T05:26:48.904Z,0.11
2017-07-04T05:27:43.945Z,0.11
2017-07-04T05:28:38.382Z,0.11
2017-07-04T05:29:39.040Z,0.10
2017-07-04T05:30:28.127Z,0.10
2017-07-04T05:31:17.231Z,0.11
2017-07-04T05:32:12.238Z,0.11
2017-07-04T05:33:01.199Z,0.11
2017-07-04T05:33:55.380Z,0.11
2017-07-04T05:34:55.330Z,0.11
2017-07-04T05:35:50.407Z,0.10
2017-07-04T05:36:45.351Z,0.10
2017-07-04T05:37:45.412Z,0.10
2017-07-04T05:38:40.639Z,0.10
2017-07-04T05:39:35.533Z,0.11
2017-07-04T05:40:24.253Z,0.11
2017-07-04T05:41:18.554Z,0.12
2017-07-04T05:42:13.269Z,0.12
2017-07-04T05:43:07.716Z,0.12
2017-07-04T05:44:02.858Z,0.13
2017-07-04T05:45:02.822Z,0.13
2017-07-04T05:45:50.740Z,0.13
2017-07-04T05:46:44.850Z,0.13
2017-07-04T05:47:39.946Z,0.13
2017-07-04T05:48:34.032Z,0.13
2017-07-04T05:49:28.027Z,0.13
2017-07-04T05:50:22.139Z,0.14
2017-07-04T05:51:17.084Z,0.14
2017-07-04T05:52:17.131Z,0.14
2017-07-04T05:53:18.196Z,0.15
2017-07-04T05:54:18.187Z,0.14
2017-07-04T05:55:13.553Z,0.14
2017-07-04T05:56:07.253Z,0.14
2017-07-04T05:57:02.336Z,0.13
2017-07-04T05:57:51.373Z,0.13
2017-07-04T05:58:46.357Z,0.13
2017-07-04T05:59:40.478Z,0.12
2017-07-04T06:00:28.571Z,0.11
2017-07-04T06:01:17.206Z,0.11
2017-07-04T06:02:16.585Z,0.11
2017-07-04T06:03:11.633Z,0.10
2017-07-04T06:04:00.713Z,0.11
2017-07-04T06:04:55.848Z,0.11
2017-07-04T06:05:55.816Z,0.10
2017-07-04T06:06:50.840Z,0.10
2017-07-04T06:07:44.879Z,0.11
2017-07-04T06:08:39.845Z,0.11
2017-07-04T06:09:35.086Z,0.11
2017-07-04T06:10:24.772Z,0.11
2017-07-04T06:11:18.159Z,0.12
2017-07-04T06:12:13.136Z,0.13
2017-07-04T06:13:13.274Z,0.13
2017-07-04T06:14:08.174Z,0.13
2017-07-04T06:15:03.329Z,0.11
2017-07-04T06:15:52.224Z,0.10
2017-07-04T06:16:46.332Z,0.10
2017-07-04T06:17:40.461Z,0.10
2017-07-04T06:18:29.531Z,0.11
2017-07-04T06:19:23.560Z,0.12
2017-07-04T06:20:18.088Z,0.13
2017-07-04T06:21:12.542Z,0.14
2017-07-04T06:22:07.563Z,0.15
2017-07-04T06:22:56.654Z,0.14
2017-07-04T06:23:45.780Z,0.14
2017-07-04T06:24:45.747Z,0.14
2017-07-04T06:25:33.816Z,0.14
2017-07-04T06:26:27.800Z,0.15
2017-07-04T06:27:23.008Z,0.14
2017-07-04T06:28:12.251Z,0.14
2017-07-04T06:29:06.013Z,0.14
2017-07-04T06:30:06.942Z,0.13
2017-07-04T06:31:01.012Z,0.13
2017-07-04T06:31:55.147Z,0.13
2017-07-04T06:32:55.177Z,0.14
2017-07-04T06:33:49.217Z,0.15
2017-07-04T06:34:44.247Z,0.15
2017-07-04T06:35:45.212Z,0.16
2017-07-04T06:36:39.376Z,0.14
2017-07-04T06:37:27.374Z,0.13
2017-07-04T06:38:21.477Z,0.11
2017-07-04T06:39:15.434Z,0.11
2017-07-04T06:40:16.219Z,0.11
2017-07-04T06:41:09.542Z,0.11
2017-07-04T06:42:09.558Z,0.12
2017-07-04T06:42:58.549Z,0.12
2017-07-04T06:43:47.645Z,0.11
2017-07-04T06:44:48.680Z,0.10
2017-07-04T06:45:48.782Z,0.09
2017-07-04T06:46:43.771Z,0.09
2017-07-04T06:47:37.848Z,0.10
2017-07-04T06:48:32.977Z,0.10
2017-07-04T06:49:21.073Z,0.10
2017-07-04T06:50:15.792Z,0.09
2017-07-04T06:51:03.945Z,0.08
2017-07-04T06:51:59.055Z,0.09
2017-07-04T06:52:53.120Z,0.09
2017-07-04T06:53:47.148Z,0.10
2017-07-04T06:54:36.118Z,0.10
2017-07-04T06:55:36.417Z,0.10
2017-07-04T06:56:36.317Z,0.11
2017-07-04T06:57:25.384Z,0.11
2017-07-04T06:58:14.469Z,0.11
2017-07-04T06:59:02.475Z,0.10
2017-07-04T06:59:57.481Z,0.09
2017-07-04T07:00:52.566Z,0.10
2017-07-04T07:01:41.556Z,0.11
2017-07-04T07:02:36.664Z,0.14
2017-07-04T07:03:30.680Z,0.16
2017-07-04T07:04:25.742Z,0.18
2017-07-04T07:05:27.123Z,0.22
2017-07-04T07:06:21.703Z,0.23
2017-07-04T07:07:15.679Z,0.24
2017-07-04T07:08:15.899Z,0.24
2017-07-04T07:09:15.956Z,0.20
2017-07-04T07:10:10.274Z,0.19
2017-07-04T07:11:03.942Z,0.19
2017-07-04T07:11:58.026Z,0.20
2017-07-04T07:12:58.992Z,0.22
2017-07-04T07:13:53.113Z,0.22
2017-07-04T07:14:47.119Z,0.22
2017-07-04T07:15:41.205Z,0.24
2017-07-04T07:16:29.233Z,0.25
2017-07-04T07:17:23.408Z,0.26
2017-07-04T07:18:12.749Z,0.27
2017-07-04T07:19:01.373Z,0.29
2017-07-04T07:19:55.334Z,0.31
2017-07-04T07:20:50.415Z,0.29
2017-07-04T07:21:44.552Z,0.26
2017-07-04T07:22:39.628Z,0.23
2017-07-04T07:23:39.623Z,0.20
2017-07-04T07:24:34.686Z,0.18
2017-07-04T07:25:29.049Z,0.16
2017-07-04T07:26:23.739Z,0.13
2017-07-04T07:27:17.792Z,0.12
2017-07-04T07:28:11.931Z,0.13
2017-07-04T07:29:06.960Z,0.14
2017-07-04T07:29:55.006Z,0.15
2017-07-04T07:30:43.017Z,0.16
2017-07-04T07:31:30.977Z,0.16
2017-07-04T07:32:25.117Z,0.19
2017-07-04T07:33:14.427Z,0.21
2017-07-04T07:34:08.123Z,0.22
2017-07-04T07:34:56.290Z,0.22
2017-07-04T07:35:56.209Z,0.23
2017-07-04T07:36:51.377Z,0.26
2017-07-04T07:37:45.353Z,0.26
2017-07-04T07:38:34.564Z,0.24
2017-07-04T07:39:27.521Z,0.22
2017-07-04T07:40:15.548Z,0.22
2017-07-04T07:41:10.609Z,0.20
2017-07-04T07:41:59.663Z,0.19
2017-07-04T07:42:59.841Z,0.18
2017-07-04T07:44:00.743Z,0.18
2017-07-04T07:45:00.699Z,0.18
2017-07-04T07:45:54.788Z,0.17
2017-07-04T07:46:49.799Z,0.15
2017-07-04T07:47:43.987Z,0.15
2017-07-04T07:48:32.939Z,0.14
2017-07-04T07:49:21.981Z,0.15
2017-07-04T07:50:16.200Z,0.18
2017-07-04T07:51:10.057Z,0.20
2017-07-04T07:52:05.156Z,0.20
2017-07-04T07:53:05.192Z,0.20
2017-07-04T07:54:00.310Z,0.21
2017-07-04T07:55:00.323Z,0.24
2017-07-04T07:56:00.305Z,0.27
2017-07-04T07:56:55.390Z,0.28
2017-07-04T07:57:49.337Z,0.26
2017-07-04T07:58:44.994Z,0.24
2017-07-04T07:59:44.503Z,0.22
2017-07-04T08:00:39.483Z,0.22
2017-07-04T08:01:33.658Z,0.23
2017-07-04T08:02:27.631Z,0.23
2017-07-04T08:03:15.596Z,0.24
2017-07-04T08:04:15.720Z,0.25
2017-07-04T08:05:10.759Z,0.24
2017-07-04T08:05:59.812Z,0.25
2017-07-04T08:06:48.883Z,0.28
2017-07-04T08:07:43.917Z,0.31
2017-07-04T08:08:32.901Z,0.34
2017-07-04T08:09:21.042Z,0.34
2017-07-04T08:10:15.138Z,0.32
2017-07-04T08:11:15.334Z,0.31
2017-07-04T08:12:09.134Z,0.32
2017-07-04T08:13:03.248Z,0.38
2017-07-04T08:14:03.277Z,0.40
2017-07-04T08:14:58.265Z,0.39
2017-07-04T08:15:58.328Z,0.41
2017-07-04T08:16:53.366Z,0.41
2017-07-04T08:17:48.328Z,0.33
2017-07-04T08:18:42.518Z,0.30
2017-07-04T08:19:36.562Z,0.30
2017-07-04T08:20:36.696Z,0.29
2017-07-04T08:21:25.644Z,0.27
2017-07-04T08:22:19.632Z,0.29
2017-07-04T08:23:14.197Z,0.31
2017-07-04T08:24:08.924Z,0.29
2017-07-04T08:24:57.065Z,0.26
2017-07-04T08:25:44.887Z,0.26
2017-07-04T08:26:39.939Z,0.27
2017-07-04T08:27:35.021Z,0.26
2017-07-04T08:28:29.328Z,0.23
2017-07-04T08:29:18.099Z,0.20
2017-07-04T08:30:13.073Z,0.18
2017-07-04T08:31:13.113Z,0.18
2017-07-04T08:32:02.223Z,0.19
2017-07-04T08:32:56.384Z,0.20
2017-07-04T08:33:56.391Z,0.20
2017-07-04T08:34:50.348Z,0.21
2017-07-04T08:35:44.424Z,0.22
2017-07-04T08:36:38.457Z,0.25
2017-07-04T08:37:33.412Z,0.32
2017-07-04T08:38:28.631Z,0.47
2017-07-04T08:39:28.575Z,0.83
2017-07-04T08:40:16.714Z,0.44
2017-07-04T08:41:05.678Z,0.40
2017-07-04T08:42:05.823Z,0.40
2017-07-04T08:42:59.835Z,0.29
2017-07-04T08:44:01.792Z,0.31
2017-07-04T08:44:48.953Z,0.33
2017-07-04T08:45:38.056Z,0.36
2017-07-04T08:46:32.965Z,0.34
2017-07-04T08:47:27.994Z,0.36
2017-07-04T08:48:29.225Z,0.49
2017-07-04T08:49:18.465Z,0.52
2017-07-04T08:50:18.556Z,0.47
2017-07-04T08:51:18.215Z,0.39
2017-07-04T08:52:18.288Z,0.40
2017-07-04T08:53:12.311Z,0.41
2017-07-04T08:54:01.491Z,0.42
2017-07-04T08:55:01.500Z,0.55
2017-07-04T08:55:55.969Z,0.41
2017-07-04T08:56:56.504Z,0.48
2017-07-04T08:57:51.870Z,0.34
2017-07-04T08:58:45.850Z,0.69
2017-07-04T08:59:40.846Z,0.80
2017-07-04T09:00:35.906Z,0.38
2017-07-04T09:01:29.864Z,0.47
2017-07-04T09:02:29.888Z,0.76
2017-07-04T09:03:23.969Z,0.93
2017-07-04T09:04:12.921Z,0.64
2017-07-04T09:05:08.271Z,0.49
2017-07-04T09:06:08.703Z,0.43
2017-07-04T09:07:03.108Z,0.40
2017-07-04T09:07:52.143Z,0.42
2017-07-04T09:08:47.243Z,0.39
2017-07-04T09:09:41.334Z,0.40
2017-07-04T09:10:30.708Z,0.47
2017-07-04T09:11:19.397Z,0.65
2017-07-04T09:12:08.967Z,0.63
2017-07-04T09:13:02.441Z,1.07
2017-07-04T09:13:57.052Z,0.52
2017-07-04T09:14:45.043Z,0.50
2017-07-04T09:15:38.844Z,0.48
2017-07-04T09:16:33.126Z,0.84
2017-07-04T09:17:33.128Z,0.49
2017-07-04T09:18:28.419Z,0.49
2017-07-04T09:19:16.944Z,0.47
2017-07-04T09:20:12.261Z,0.45
2017-07-04T09:21:01.247Z,0.47
2017-07-04T09:21:56.127Z,0.48
2017-07-04T09:22:45.556Z,0.50
2017-07-04T09:23:34.079Z,0.57
2017-07-04T09:24:28.506Z,0.62
2017-07-04T09:25:24.005Z,1.01
2017-07-04T09:26:17.420Z,0.59
2017-07-04T09:27:11.902Z,1.02
2017-07-04T09:28:00.429Z,1.01
2017-07-04T09:28:54.754Z,0.55
2017-07-04T09:29:43.657Z,0.59
2017-07-04T09:30:31.676Z,0.46
2017-07-04T09:31:26.858Z,0.67
2017-07-04T09:32:27.229Z,0.55
2017-07-04T09:33:26.936Z,1.04
2017-07-04T09:34:27.037Z,1.02
2017-07-04T09:35:21.731Z,0.57
2017-07-04T09:36:21.082Z,1.10
2017-07-04T09:37:16.234Z,0.74
2017-07-04T09:38:10.487Z,0.65
2017-07-04T09:39:10.239Z,1.19
2017-07-04T09:40:05.350Z,1.13
2017-07-04T09:40:59.897Z,0.50
2017-07-04T09:41:53.682Z,0.50
2017-07-04T09:42:48.561Z,0.50
2017-07-04T09:43:42.609Z,0.50
2017-07-04T09:44:36.644Z,0.54
2017-07-04T09:45:26.614Z,0.55
2017-07-04T09:46:14.970Z,0.63
2017-07-04T09:47:04.513Z,0.59
2017-07-04T09:47:57.906Z,0.62
2017-07-04T09:48:52.360Z,0.81
2017-07-04T09:49:46.035Z,0.60
2017-07-04T09:50:34.523Z,0.57
2017-07-04T09:51:22.318Z,0.53
2017-07-04T09:52:16.467Z,0.55
2017-07-04T09:53:10.384Z,0.77
2017-07-04T09:54:10.482Z,0.47
2017-07-04T09:55:05.617Z,0.42
2017-07-04T09:55:59.497Z,0.42
2017-07-04T09:56:54.618Z,0.45
2017-07-04T09:57:48.863Z,0.46
2017-07-04T09:58:37.813Z,0.48
2017-07-04T09:59:27.026Z,0.46
2017-07-04T10:00:27.692Z,0.47
2017-07-04T10:01:22.358Z,0.45
2017-07-04T10:02:16.411Z,0.42
2017-07-04T10:03:10.452Z,0.41
2017-07-04T10:03:59.064Z,0.43
2017-07-04T10:04:49.426Z,0.46
2017-07-04T10:05:43.254Z,0.48
2017-07-04T10:06:37.584Z,0.53
2017-07-04T10:07:32.239Z,0.56
2017-07-04T10:08:26.323Z,0.77
2017-07-04T10:09:21.035Z,0.63
2017-07-04T10:10:15.047Z,0.90
2017-07-04T10:11:02.811Z,0.49
2017-07-04T10:11:56.664Z,0.39
2017-07-04T10:12:50.939Z,0.35
2017-07-04T10:13:44.609Z,0.35
2017-07-04T10:14:39.718Z,0.40
2017-07-04T10:15:33.735Z,0.46
2017-07-04T10:16:28.694Z,0.49
2017-07-04T10:17:23.061Z,0.50
2017-07-04T10:18:17.933Z,0.74
2017-07-04T10:19:06.292Z,0.47
2017-07-04T10:19:55.233Z,0.42
2017-07-04T10:20:50.371Z,1.11
2017-07-04T10:21:39.662Z,1.13
2017-07-04T10:22:33.136Z,1.09
2017-07-04T10:23:21.278Z,1.07
2017-07-04T10:24:09.388Z,1.10
2017-07-04T10:25:03.868Z,0.44
2017-07-04T10:25:52.976Z,0.48
2017-07-04T10:26:46.471Z,0.41
2017-07-04T10:27:41.795Z,0.69
2017-07-04T10:28:30.752Z,1.01
2017-07-04T10:29:31.112Z,1.04
2017-07-04T10:30:25.349Z,1.03
2017-07-04T10:31:13.857Z,1.05
2017-07-04T10:32:03.582Z,1.06
2017-07-04T10:32:52.357Z,1.08
2017-07-04T10:33:47.521Z,1.05
2017-07-04T10:34:41.444Z,1.04
2017-07-04T10:35:36.273Z,1.10
2017-07-04T10:36:30.649Z,0.40
2017-07-04T10:37:19.906Z,0.31
2017-07-04T10:38:14.643Z,0.29
2017-07-04T10:39:09.105Z,1.06
2017-07-04T10:40:04.015Z,1.04
2017-07-04T10:40:52.738Z,0.99
2017-07-04T10:41:41.161Z,0.42
2017-07-04T10:42:29.621Z,0.39
2017-07-04T10:43:24.746Z,0.33
2017-07-04T10:44:18.720Z,0.33
2017-07-04T10:45:14.149Z,1.10
2017-07-04T10:46:08.834Z,1.18
2017-07-04T10:47:03.268Z,0.54
2017-07-04T10:47:52.031Z,0.34
2017-07-04T10:48:51.927Z,0.36
2017-07-04T10:49:47.092Z,0.44
2017-07-04T10:50:36.142Z,0.43
2017-07-04T10:51:24.332Z,0.40
2017-07-04T10:52:19.432Z,0.40
2017-07-04T10:53:13.589Z,0.40
2017-07-04T10:54:02.421Z,0.43
2017-07-04T10:54:56.620Z,0.43
2017-07-04T10:55:51.542Z,0.44
2017-07-04T10:56:51.975Z,0.45
2017-07-04T10:57:39.622Z,0.45
2017-07-04T10:58:33.679Z,0.45
2017-07-04T10:59:28.241Z,0.43
2017-07-04T11:00:28.422Z,0.43
2017-07-04T11:01:17.436Z,0.41
2017-07-04T11:02:12.317Z,0.39
2017-07-04T11:03:01.420Z,0.39
2017-07-04T11:03:56.365Z,0.40
2017-07-04T11:04:51.384Z,0.44
2017-07-04T11:05:45.467Z,0.80
2017-07-04T11:06:39.610Z,0.54
2017-07-04T11:07:39.177Z,0.60
2017-07-04T11:08:34.397Z,0.58
2017-07-04T11:09:28.779Z,1.06
2017-07-04T11:10:23.171Z,0.73
2017-07-04T11:11:16.404Z,1.07
2017-07-04T11:12:16.605Z,1.11
2017-07-04T11:13:05.722Z,0.75
2017-07-04T11:14:00.664Z,1.13
2017-07-04T11:14:54.906Z,1.05
2017-07-04T11:15:54.876Z,1.04
2017-07-04T11:16:44.029Z,0.96
2017-07-04T11:17:39.033Z,0.87
2017-07-04T11:18:28.175Z,0.67
2017-07-04T11:19:22.266Z,0.61
2017-07-04T11:20:16.253Z,0.57
2017-07-04T11:21:16.971Z,0.55
2017-07-04T11:22:10.543Z,0.56
2017-07-04T11:22:59.537Z,0.55
2017-07-04T11:23:53.696Z,0.52
2017-07-04T11:24:47.863Z,0.49
2017-07-04T11:25:43.290Z,0.49
2017-07-04T11:26:38.108Z,0.49
2017-07-04T11:27:33.096Z,0.48
2017-07-04T11:28:27.092Z,0.48
2017-07-04T11:29:21.911Z,0.49
2017-07-04T11:30:16.250Z,0.49
2017-07-04T11:31:05.501Z,0.48
2017-07-04T11:31:54.332Z,0.50
2017-07-04T11:32:43.321Z,0.52
2017-07-04T11:33:44.628Z,1.20
2017-07-04T11:34:33.388Z,0.58
2017-07-04T11:35:28.038Z,0.71
2017-07-04T11:36:16.188Z,0.51
2017-07-04T11:37:10.717Z,0.50
2017-07-04T11:37:59.760Z,0.49
2017-07-04T11:38:55.264Z,0.55
2017-07-04T11:39:49.528Z,0.55
2017-07-04T11:40:43.388Z,1.00
2017-07-04T11:41:37.023Z,1.03
2017-07-04T11:42:31.082Z,0.86
2017-07-04T11:43:31.062Z,0.74
2017-07-04T11:44:26.454Z,0.74
2017-07-04T11:45:20.248Z,0.75
2017-07-04T11:46:14.312Z,0.88
2017-07-04T11:47:08.307Z,0.95
2017-07-04T11:47:57.620Z,0.91
2017-07-04T11:48:51.803Z,0.97
2017-07-04T11:49:40.368Z,0.99
2017-07-04T11:50:29.271Z,0.94
2017-07-04T11:51:23.196Z,0.99
2017-07-04T11:52:17.307Z,1.02
2017-07-04T11:53:05.509Z,1.09
2017-07-04T11:53:59.399Z,0.35
2017-07-04T11:54:53.630Z,0.40
2017-07-04T11:55:53.511Z,0.36
2017-07-04T11:56:53.512Z,0.60
2017-07-04T11:57:48.225Z,0.72
2017-07-04T11:58:37.760Z,0.38
2017-07-04T11:59:32.763Z,0.41
2017-07-04T12:00:33.084Z,0.37
2017-07-04T12:01:27.881Z,0.37
2017-07-04T12:02:16.674Z,0.38
2017-07-04T12:03:11.230Z,0.52
2017-07-04T12:04:05.343Z,0.45
2017-07-04T12:04:54.509Z,0.64
2017-07-04T12:05:48.028Z,0.49
2017-07-04T12:06:42.027Z,0.45
2017-07-04T12:07:31.191Z,0.45
2017-07-04T12:08:20.048Z,0.72
2017-07-04T12:09:15.372Z,0.78